createdAt,value
2017-12-24T00:01:00.510Z,1013.71
2017-12-24T00:02:01.920Z,1013.69
2017-12-24T00:03:03.334Z,1013.67
2017-12-24T00:04:04.756Z,1013.64
2017-12-24T00:05:06.175Z,1013.79
2017-12-24T00:06:07.587Z,1013.74
2017-12-24T00:07:09.019Z,1013.73
2017-12-24T00:08:10.428Z,1013.75
2017-12-24T00:09:11.845Z,1013.77
2017-12-24T00:10:13.260Z,1013.77
2017-12-24T00:11:14.668Z,1013.76
2017-12-24T00:12:16.092Z,1013.74
2017-12-24T00:13:17.502Z,1013.74
2017-12-24T00:14:18.912Z,1013.74
2017-12-24T00:15:20.326Z,1013.78
2017-12-24T00:16:21.755Z,1013.70
2017-12-24T00:17:23.179Z,1013.65
2017-12-24T00:18:24.603Z,1013.68
2017-12-24T00:19:26.017Z,1013.64
2017-12-24T00:20:27.431Z,1013.68
2017-12-24T00:21:28.848Z,1013.67
2017-12-24T00:22:30.268Z,1013.70
2017-12-24T00:23:31.692Z,1013.67
2017-12-24T00:24:33.115Z,1013.54
2017-12-24T00:25:34.530Z,1013.59
2017-12-24T00:26:35.956Z,1013.58
2017-12-24T00:27:37.376Z,1013.57
2017-12-24T00:28:38.796Z,1013.59
2017-12-24T00:29:40.227Z,1013.52
2017-12-24T00:30:41.765Z,1013.52
2017-12-24T00:31:43.185Z,1013.47
2017-12-24T00:32:44.587Z,1013.54
2017-12-24T00:33:46.022Z,1013.51
2017-12-24T00:34:47.425Z,1013.50
2017-12-24T00:35:48.855Z,1013.46
2017-12-24T00:36:50.275Z,1013.46
2017-12-24T00:37:51.715Z,1013.39
2017-12-24T00:38:53.127Z,1013.41
2017-12-24T00:39:54.542Z,1013.35
2017-12-24T00:40:55.957Z,1013.42
2017-12-24T00:41:57.374Z,1013.43
2017-12-24T00:42:58.803Z,1013.44
2017-12-24T00:44:00.227Z,1013.43
2017-12-24T00:45:01.641Z,1013.48
2017-12-24T00:46:03.060Z,1013.42
2017-12-24T00:47:04.467Z,1013.48
2017-12-24T00:48:05.893Z,1013.54
2017-12-24T00:49:07.300Z,1013.46
2017-12-24T00:50:08.720Z,1013.52
2017-12-24T00:51:10.134Z,1013.44
2017-12-24T00:52:11.560Z,1013.44
2017-12-24T00:53:12.969Z,1013.48
2017-12-24T00:54:14.389Z,1013.43
2017-12-24T00:55:15.795Z,1013.37
2017-12-24T00:56:17.222Z,1013.31
2017-12-24T00:57:18.655Z,1013.30
2017-12-24T00:58:20.076Z,1013.33
2017-12-24T00:59:21.503Z,1013.31
2017-12-24T01:00:22.922Z,1013.30
2017-12-24T01:01:24.325Z,1013.26
2017-12-24T01:02:25.750Z,1013.24
2017-12-24T01:03:27.163Z,1013.32
2017-12-24T01:04:28.580Z,1013.26
2017-12-24T01:05:30.003Z,1013.23
2017-12-24T01:06:31.410Z,1013.22
2017-12-24T01:07:32.825Z,1013.26
2017-12-24T01:08:34.253Z,1013.23
2017-12-24T01:09:35.658Z,1013.21
2017-12-24T01:10:37.071Z,1013.19
2017-12-24T01:11:38.496Z,1013.27
2017-12-24T01:12:39.920Z,1013.24
2017-12-24T01:13:41.336Z,1013.25
2017-12-24T01:14:42.758Z,1013.30
2017-12-24T01:15:44.171Z,1013.30
2017-12-24T01:16:45.581Z,1013.29
2017-12-24T01:17:47.001Z,1013.25
2017-12-24T01:18:48.404Z,1013.23
2017-12-24T01:19:49.822Z,1013.30
2017-12-24T01:20:51.228Z,1013.36
2017-12-24T01:21:52.651Z,1013.37
2017-12-24T01:22:54.060Z,1013.41
2017-12-24T01:23:55.481Z,1013.34
2017-12-24T01:24:56.903Z,1013.28
2017-12-24T01:25:58.318Z,1013.38
2017-12-24T01:26:59.741Z,1013.29
2017-12-24T01:28:01.152Z,1013.31
2017-12-24T01:29:02.561Z,1013.35
2017-12-24T01:30:03.981Z,1013.32
2017-12-24T01:31:05.384Z,1013.30
2017-12-24T01:32:06.809Z,1013.24
2017-12-24T01:33:08.222Z,1013.28
2017-12-24T01:34:09.642Z,1013.27
2017-12-24T01:35:11.054Z,1013.30
2017-12-24T01:36:12.467Z,1013.28
2017-12-24T01:37:13.881Z,1013.20
2017-12-24T01:38:15.294Z,1013.23
2017-12-24T01:39:16.719Z,1013.23
2017-12-24T01:40:18.124Z,1013.08
2017-12-24T01:41:19.549Z,1013.11
2017-12-24T01:42:20.962Z,1013.15
2017-12-24T01:43:22.387Z,1013.22
2017-12-24T01:44:23.810Z,1013.16
2017-12-24T01:45:25.229Z,1013.12
2017-12-24T01:46:26.647Z,1013.14
2017-12-24T01:47:28.061Z,1013.00
2017-12-24T01:48:29.474Z,1013.09
2017-12-24T01:49:30.890Z,1013.09
2017-12-24T01:50:32.305Z,1013.03
2017-12-24T01:51:33.729Z,1013.03
2017-12-24T01:52:35.142Z,1013.09
2017-12-24T01:53:36.557Z,1013.10
2017-12-24T01:54:37.974Z,1013.03
2017-12-24T01:55:39.383Z,1013.03
2017-12-24T01:56:40.801Z,1013.10
2017-12-24T01:57:42.216Z,1013.10
2017-12-24T01:58:43.630Z,1013.20
2017-12-24T01:59:45.043Z,1013.27
2017-12-24T02:00:46.464Z,1013.26
2017-12-24T02:01:47.870Z,1013.26
2017-12-24T02:02:49.285Z,1013.31
2017-12-24T02:03:50.697Z,1013.30
2017-12-24T02:04:52.119Z,1013.33
2017-12-24T02:05:53.551Z,1013.36
2017-12-24T02:06:54.978Z,1013.39
2017-12-24T02:07:56.375Z,1013.34
2017-12-24T02:08:57.798Z,1013.28
2017-12-24T02:09:59.207Z,1013.40
2017-12-24T02:11:00.626Z,1013.40
2017-12-24T02:12:02.046Z,1013.37
2017-12-24T02:13:03.456Z,1013.37
2017-12-24T02:14:04.865Z,1013.51
2017-12-24T02:15:06.284Z,1013.46
2017-12-24T02:16:07.703Z,1013.47
2017-12-24T02:17:09.122Z,1013.53
2017-12-24T02:18:10.539Z,1013.44
2017-12-24T02:19:11.960Z,1013.45
2017-12-24T02:20:13.377Z,1013.46
2017-12-24T02:21:14.789Z,1013.42
2017-12-24T02:22:16.202Z,1013.47
2017-12-24T02:23:17.620Z,1013.47
2017-12-24T02:24:19.042Z,1013.44
2017-12-24T02:25:20.455Z,1013.50
2017-12-24T02:26:21.873Z,1013.55
2017-12-24T02:27:23.287Z,1013.49
2017-12-24T02:28:24.699Z,1013.52
2017-12-24T02:29:26.111Z,1013.55
2017-12-24T02:30:27.530Z,1013.52
2017-12-24T02:31:28.952Z,1013.52
2017-12-24T02:32:30.368Z,1013.51
2017-12-24T02:33:31.783Z,1013.55
2017-12-24T02:34:33.192Z,1013.52
2017-12-24T02:35:34.621Z,1013.52
2017-12-24T02:36:36.029Z,1013.49
2017-12-24T02:37:37.445Z,1013.51
2017-12-24T02:38:38.865Z,1013.51
2017-12-24T02:39:40.271Z,1013.54
2017-12-24T02:40:41.684Z,1013.51
2017-12-24T02:41:43.100Z,1013.48
2017-12-24T02:42:44.513Z,1013.48
2017-12-24T02:43:45.922Z,1013.51
2017-12-24T02:44:47.341Z,1013.48
2017-12-24T02:45:48.745Z,1013.52
2017-12-24T02:46:50.160Z,1013.48
2017-12-24T02:47:51.573Z,1013.39
2017-12-24T02:48:52.988Z,1013.44
2017-12-24T02:49:54.415Z,1013.48
2017-12-24T02:50:55.823Z,1013.50
2017-12-24T02:51:57.240Z,1013.55
2017-12-24T02:52:58.657Z,1013.52
2017-12-24T02:54:00.080Z,1013.52
2017-12-24T02:55:01.496Z,1013.58
2017-12-24T02:56:02.912Z,1013.52
2017-12-24T02:57:04.436Z,1013.53
2017-12-24T02:58:05.857Z,1013.59
2017-12-24T02:59:07.273Z,1013.59
2017-12-24T03:00:08.690Z,1013.55
2017-12-24T03:01:10.096Z,1013.49
2017-12-24T03:02:11.528Z,1013.53
2017-12-24T03:03:12.939Z,1013.44
2017-12-24T03:04:14.361Z,1013.49
2017-12-24T03:05:15.808Z,1013.55
2017-12-24T03:06:17.154Z,1013.60
2017-12-24T03:07:18.570Z,1013.52
2017-12-24T03:08:19.985Z,1013.56
2017-12-24T03:09:21.399Z,1013.51
2017-12-24T03:10:22.815Z,1013.56
2017-12-24T03:11:24.223Z,1013.48
2017-12-24T03:12:25.647Z,1013.38
2017-12-24T03:13:27.054Z,1013.47
2017-12-24T03:14:28.469Z,1013.39
2017-12-24T03:15:29.883Z,1013.35
2017-12-24T03:16:31.304Z,1013.33
2017-12-24T03:17:32.715Z,1013.36
2017-12-24T03:18:34.140Z,1013.30
2017-12-24T03:19:35.557Z,1013.34
2017-12-24T03:20:36.971Z,1013.32
2017-12-24T03:21:38.391Z,1013.34
2017-12-24T03:22:39.802Z,1013.27
2017-12-24T03:23:41.216Z,1013.30
2017-12-24T03:24:42.636Z,1013.31
2017-12-24T03:25:44.049Z,1013.31
2017-12-24T03:26:45.479Z,1013.32
2017-12-24T03:27:46.896Z,1013.26
2017-12-24T03:28:48.306Z,1013.25
2017-12-24T03:29:49.729Z,1013.26
2017-12-24T03:30:51.149Z,1013.32
2017-12-24T03:31:52.567Z,1013.30
2017-12-24T03:32:53.979Z,1013.28
2017-12-24T03:33:55.393Z,1013.26
2017-12-24T03:34:56.802Z,1013.26
2017-12-24T03:35:58.217Z,1013.27
2017-12-24T03:36:59.626Z,1013.14
2017-12-24T03:38:01.044Z,1013.20
2017-12-24T03:39:02.469Z,1013.18
2017-12-24T03:40:03.891Z,1013.23
2017-12-24T03:41:05.329Z,1013.20
2017-12-24T03:42:06.742Z,1013.22
2017-12-24T03:43:08.157Z,1013.28
2017-12-24T03:44:09.585Z,1013.15
2017-12-24T03:45:10.990Z,1013.15
2017-12-24T03:46:12.407Z,1013.13
2017-12-24T03:47:13.827Z,1013.12
2017-12-24T03:48:15.368Z,1013.16
2017-12-24T03:49:16.785Z,1013.16
2017-12-24T03:50:18.200Z,1013.24
2017-12-24T03:51:19.610Z,1013.17
2017-12-24T03:52:21.038Z,1013.19
2017-12-24T03:53:22.448Z,1013.15
2017-12-24T03:54:23.866Z,1013.18
2017-12-24T03:55:25.283Z,1013.14
2017-12-24T03:56:26.699Z,1013.18
2017-12-24T03:57:28.120Z,1013.17
2017-12-24T03:58:29.534Z,1013.15
2017-12-24T03:59:30.949Z,1013.14
2017-12-24T04:00:32.365Z,1013.18
2017-12-24T04:01:33.787Z,1013.19
2017-12-24T04:02:35.198Z,1013.24
2017-12-24T04:03:37.595Z,1013.20
2017-12-24T04:04:39.017Z,1013.25
2017-12-24T04:05:40.430Z,1013.24
2017-12-24T04:06:41.846Z,1013.18
2017-12-24T04:07:43.268Z,1013.16
2017-12-24T04:08:44.684Z,1013.21
2017-12-24T04:09:46.098Z,1013.21
2017-12-24T04:10:47.523Z,1013.24
2017-12-24T04:11:48.932Z,1013.19
2017-12-24T04:12:50.347Z,1013.20
2017-12-24T04:13:51.757Z,1013.14
2017-12-24T04:14:53.182Z,1013.13
2017-12-24T04:15:54.591Z,1013.20
2017-12-24T04:16:56.004Z,1013.19
2017-12-24T04:17:57.422Z,1013.17
2017-12-24T04:18:58.835Z,1013.13
2017-12-24T04:20:00.268Z,1013.24
2017-12-24T04:21:01.707Z,1013.19
2017-12-24T04:22:03.117Z,1013.17
2017-12-24T04:23:04.532Z,1013.15
2017-12-24T04:24:05.961Z,1013.18
2017-12-24T04:25:07.374Z,1013.08
2017-12-24T04:26:08.786Z,1013.03
2017-12-24T04:27:10.202Z,1013.09
2017-12-24T04:28:11.627Z,1013.00
2017-12-24T04:29:13.040Z,1012.97
2017-12-24T04:30:14.449Z,1012.96
2017-12-24T04:31:15.868Z,1012.87
2017-12-24T04:32:17.279Z,1012.89
2017-12-24T04:33:18.697Z,1012.93
2017-12-24T04:34:20.118Z,1012.88
2017-12-24T04:35:21.543Z,1012.88
2017-12-24T04:36:22.957Z,1012.90
2017-12-24T04:37:24.377Z,1012.84
2017-12-24T04:38:25.800Z,1012.89
2017-12-24T04:39:27.219Z,1012.77
2017-12-24T04:40:28.640Z,1012.83
2017-12-24T04:41:30.045Z,1012.83
2017-12-24T04:42:31.458Z,1012.87
2017-12-24T04:43:32.876Z,1012.83
2017-12-24T04:44:34.285Z,1012.87
2017-12-24T04:45:35.712Z,1012.81
2017-12-24T04:46:37.122Z,1012.82
2017-12-24T04:47:38.539Z,1012.77
2017-12-24T04:48:39.956Z,1012.80
2017-12-24T04:49:41.372Z,1012.81
2017-12-24T04:50:42.779Z,1012.73
2017-12-24T04:51:44.198Z,1012.66
2017-12-24T04:52:45.612Z,1012.66
2017-12-24T04:53:47.028Z,1012.60
2017-12-24T04:54:48.443Z,1012.58
2017-12-24T04:55:49.861Z,1012.58
2017-12-24T04:56:51.272Z,1012.52
2017-12-24T04:57:52.690Z,1012.45
2017-12-24T04:58:54.106Z,1012.43
2017-12-24T04:59:55.524Z,1012.53
2017-12-24T05:00:56.941Z,1012.48
2017-12-24T05:01:58.363Z,1012.47
2017-12-24T05:02:59.791Z,1012.38
2017-12-24T05:04:01.213Z,1012.38
2017-12-24T05:05:02.633Z,1012.36
2017-12-24T05:06:04.041Z,1012.39
2017-12-24T05:07:06.064Z,1012.39
2017-12-24T05:08:07.476Z,1012.41
2017-12-24T05:09:08.889Z,1012.28
2017-12-24T05:10:10.297Z,1012.39
2017-12-24T05:11:11.717Z,1012.31
2017-12-24T05:12:13.137Z,1012.40
2017-12-24T05:13:14.549Z,1012.33
2017-12-24T05:14:15.966Z,1012.36
2017-12-24T05:15:17.384Z,1012.36
2017-12-24T05:16:18.812Z,1012.40
2017-12-24T05:17:20.215Z,1012.33
2017-12-24T05:18:21.634Z,1012.38
2017-12-24T05:19:23.067Z,1012.37
2017-12-24T05:20:24.479Z,1012.33
2017-12-24T05:21:25.895Z,1012.29
2017-12-24T05:22:27.304Z,1012.33
2017-12-24T05:23:28.710Z,1012.27
2017-12-24T05:24:30.123Z,1012.29
2017-12-24T05:25:31.543Z,1012.27
2017-12-24T05:26:32.954Z,1012.26
2017-12-24T05:27:34.366Z,1012.27
2017-12-24T05:28:35.790Z,1012.31
2017-12-24T05:29:37.207Z,1012.24
2017-12-24T05:30:38.618Z,1012.29
2017-12-24T05:31:40.040Z,1012.25
2017-12-24T05:32:41.459Z,1012.29
2017-12-24T05:33:42.870Z,1012.29
2017-12-24T05:34:44.354Z,1012.29
2017-12-24T05:35:45.784Z,1012.27
2017-12-24T05:36:47.187Z,1012.26
2017-12-24T05:37:48.618Z,1012.31
2017-12-24T05:38:50.019Z,1012.22
2017-12-24T05:39:51.435Z,1012.25
2017-12-24T05:40:52.852Z,1012.21
2017-12-24T05:41:54.289Z,1012.19
2017-12-24T05:42:55.678Z,1012.17
2017-12-24T05:43:57.101Z,1012.23
2017-12-24T05:44:58.515Z,1012.21
2017-12-24T05:45:59.933Z,1012.20
2017-12-24T05:47:01.345Z,1012.15
2017-12-24T05:48:02.751Z,1012.10
2017-12-24T05:49:04.167Z,1012.13
2017-12-24T05:50:05.586Z,1012.09
2017-12-24T05:51:07.000Z,1012.11
2017-12-24T05:52:08.414Z,1012.13
2017-12-24T05:53:09.829Z,1012.10
2017-12-24T05:54:11.244Z,1012.03
2017-12-24T05:55:12.659Z,1012.03
2017-12-24T05:56:14.083Z,1012.03
2017-12-24T05:57:15.510Z,1012.07
2017-12-24T05:58:16.920Z,1012.03
2017-12-24T05:59:18.340Z,1012.03
2017-12-24T06:00:19.761Z,1012.01
2017-12-24T06:01:21.173Z,1011.95
2017-12-24T06:02:22.600Z,1012.01
2017-12-24T06:03:24.019Z,1012.00
2017-12-24T06:04:25.439Z,1011.98
2017-12-24T06:05:26.852Z,1011.98
2017-12-24T06:06:28.271Z,1011.99
2017-12-24T06:07:29.686Z,1011.97
2017-12-24T06:08:31.103Z,1011.98
2017-12-24T06:09:32.518Z,1011.94
2017-12-24T06:10:33.939Z,1011.92
2017-12-24T06:11:35.363Z,1011.89
2017-12-24T06:12:36.787Z,1011.90
2017-12-24T06:13:38.204Z,1011.93
2017-12-24T06:14:39.615Z,1011.82
2017-12-24T06:15:41.029Z,1011.84
2017-12-24T06:16:42.442Z,1011.95
2017-12-24T06:17:43.856Z,1011.93
2017-12-24T06:18:45.267Z,1011.88
2017-12-24T06:19:46.679Z,1011.81
2017-12-24T06:20:48.093Z,1011.87
2017-12-24T06:21:49.512Z,1011.77
2017-12-24T06:22:50.922Z,1011.75
2017-12-24T06:23:52.327Z,1011.75
2017-12-24T06:24:53.749Z,1011.75
2017-12-24T06:25:55.169Z,1011.75
2017-12-24T06:26:56.584Z,1011.69
2017-12-24T06:27:57.999Z,1011.76
2017-12-24T06:28:59.414Z,1011.78
2017-12-24T06:30:00.830Z,1011.73
2017-12-24T06:31:02.248Z,1011.68
2017-12-24T06:32:03.667Z,1011.69
2017-12-24T06:33:05.155Z,1011.75
2017-12-24T06:34:06.569Z,1011.68
2017-12-24T06:35:07.985Z,1011.72
2017-12-24T06:36:09.416Z,1011.77
2017-12-24T06:37:10.827Z,1011.75
2017-12-24T06:38:12.244Z,1011.75
2017-12-24T06:39:13.663Z,1011.85
2017-12-24T06:40:15.069Z,1011.84
2017-12-24T06:41:16.493Z,1011.84
2017-12-24T06:42:17.898Z,1011.78
2017-12-24T06:43:19.321Z,1011.83
2017-12-24T06:44:20.728Z,1011.78
2017-12-24T06:45:22.147Z,1011.75
2017-12-24T06:46:23.559Z,1011.76
2017-12-24T06:47:24.969Z,1011.75
2017-12-24T06:48:26.388Z,1011.73
2017-12-24T06:49:27.811Z,1011.74
2017-12-24T06:50:29.218Z,1011.73
2017-12-24T06:51:30.634Z,1011.71
2017-12-24T06:52:32.049Z,1011.72
2017-12-24T06:53:33.452Z,1011.73
2017-12-24T06:54:34.873Z,1011.72
2017-12-24T06:55:36.284Z,1011.71
2017-12-24T06:56:37.699Z,1011.71
2017-12-24T06:57:39.107Z,1011.74
2017-12-24T06:58:40.555Z,1011.70
2017-12-24T06:59:41.974Z,1011.57
2017-12-24T07:00:43.384Z,1011.54
2017-12-24T07:01:44.813Z,1011.56
2017-12-24T07:02:46.234Z,1011.48
2017-12-24T07:03:47.652Z,1011.53
2017-12-24T07:04:49.069Z,1011.53
2017-12-24T07:05:50.482Z,1011.52
2017-12-24T07:06:51.898Z,1011.48
2017-12-24T07:07:53.313Z,1011.47
2017-12-24T07:08:54.727Z,1011.45
2017-12-24T07:09:56.143Z,1011.51
2017-12-24T07:10:57.559Z,1011.52
2017-12-24T07:11:58.974Z,1011.49
2017-12-24T07:13:00.389Z,1011.52
2017-12-24T07:14:01.810Z,1011.49
2017-12-24T07:15:03.229Z,1011.45
2017-12-24T07:16:04.649Z,1011.49
2017-12-24T07:17:06.076Z,1011.46
2017-12-24T07:18:07.488Z,1011.49
2017-12-24T07:19:08.911Z,1011.49
2017-12-24T07:20:10.330Z,1011.47
2017-12-24T07:21:11.747Z,1011.45
2017-12-24T07:22:13.159Z,1011.44
2017-12-24T07:23:14.577Z,1011.46
2017-12-24T07:24:15.998Z,1011.40
2017-12-24T07:25:17.410Z,1011.37
2017-12-24T07:26:18.826Z,1011.32
2017-12-24T07:27:20.238Z,1011.35
2017-12-24T07:28:21.652Z,1011.35
2017-12-24T07:29:23.072Z,1011.32
2017-12-24T07:30:24.483Z,1011.38
2017-12-24T07:31:25.906Z,1011.37
2017-12-24T07:32:27.327Z,1011.40
2017-12-24T07:33:28.750Z,1011.38
2017-12-24T07:34:30.167Z,1011.40
2017-12-24T07:35:31.582Z,1011.39
2017-12-24T07:36:32.997Z,1011.45
2017-12-24T07:37:34.416Z,1011.54
2017-12-24T07:38:35.893Z,1011.56
2017-12-24T07:39:37.303Z,1011.57
2017-12-24T07:40:38.720Z,1011.56
2017-12-24T07:41:40.127Z,1011.63
2017-12-24T07:42:41.543Z,1011.56
2017-12-24T07:43:42.954Z,1011.62
2017-12-24T07:44:44.379Z,1011.63
2017-12-24T07:45:45.900Z,1011.62
2017-12-24T07:46:47.316Z,1011.56
2017-12-24T07:47:48.732Z,1011.60
2017-12-24T07:48:50.144Z,1011.58
2017-12-24T07:49:51.555Z,1011.59
2017-12-24T07:50:52.970Z,1011.59
2017-12-24T07:51:54.385Z,1011.57
2017-12-24T07:52:55.800Z,1011.60
2017-12-24T07:53:57.222Z,1011.62
2017-12-24T07:54:58.632Z,1011.60
2017-12-24T07:56:00.047Z,1011.57
2017-12-24T07:57:01.472Z,1011.59
2017-12-24T07:58:02.886Z,1011.56
2017-12-24T07:59:04.313Z,1011.52
2017-12-24T08:00:05.732Z,1011.52
2017-12-24T08:01:07.147Z,1011.57
2017-12-24T08:02:08.561Z,1011.50
2017-12-24T08:03:09.979Z,1011.47
2017-12-24T08:04:11.397Z,1011.47
2017-12-24T08:05:12.813Z,1011.40
2017-12-24T08:06:14.228Z,1011.42
2017-12-24T08:07:15.650Z,1011.42
2017-12-24T08:08:17.071Z,1011.32
2017-12-24T08:09:18.485Z,1011.42
2017-12-24T08:10:19.902Z,1011.46
2017-12-24T08:11:21.321Z,1011.35
2017-12-24T08:12:22.735Z,1011.41
2017-12-24T08:13:24.152Z,1011.33
2017-12-24T08:14:25.565Z,1011.39
2017-12-24T08:15:26.983Z,1011.38
2017-12-24T08:16:28.400Z,1011.34
2017-12-24T08:17:29.822Z,1011.36
2017-12-24T08:18:32.439Z,1011.38
2017-12-24T08:19:33.357Z,1011.32
2017-12-24T08:20:34.779Z,1011.39
2017-12-24T08:21:36.188Z,1011.36
2017-12-24T08:22:37.609Z,1011.39
2017-12-24T08:23:39.031Z,1011.37
2017-12-24T08:24:40.457Z,1011.40
2017-12-24T08:25:41.862Z,1011.41
2017-12-24T08:26:43.281Z,1011.34
2017-12-24T08:27:44.702Z,1011.27
2017-12-24T08:28:46.113Z,1011.35
2017-12-24T08:29:47.529Z,1011.30
2017-12-24T08:30:48.952Z,1011.37
2017-12-24T08:31:50.369Z,1011.33
2017-12-24T08:32:51.783Z,1011.37
2017-12-24T08:33:53.200Z,1011.36
2017-12-24T08:34:54.620Z,1011.35
2017-12-24T08:35:56.043Z,1011.39
2017-12-24T08:36:57.455Z,1011.34
2017-12-24T08:37:58.879Z,1011.34
2017-12-24T08:39:00.294Z,1011.32
2017-12-24T08:40:01.704Z,1011.42
2017-12-24T08:41:03.133Z,1011.30
2017-12-24T08:42:04.552Z,1011.40
2017-12-24T08:43:05.969Z,1011.43
2017-12-24T08:44:07.386Z,1011.41
2017-12-24T08:45:08.793Z,1011.46
2017-12-24T08:46:10.212Z,1011.41
2017-12-24T08:47:11.624Z,1011.48
2017-12-24T08:48:13.042Z,1011.44
2017-12-24T08:49:14.460Z,1011.51
2017-12-24T08:50:15.873Z,1011.43
2017-12-24T08:51:17.294Z,1011.55
2017-12-24T08:52:18.716Z,1011.47
2017-12-24T08:53:20.140Z,1011.52
2017-12-24T08:54:21.574Z,1011.53
2017-12-24T08:55:22.986Z,1011.51
2017-12-24T08:56:24.400Z,1011.54
2017-12-24T08:57:25.820Z,1011.53
2017-12-24T08:58:27.244Z,1011.52
2017-12-24T08:59:28.657Z,1011.55
2017-12-24T09:00:30.153Z,1011.58
2017-12-24T09:01:31.572Z,1011.59
2017-12-24T09:02:32.997Z,1011.57
2017-12-24T09:03:34.400Z,1011.61
2017-12-24T09:04:35.819Z,1011.59
2017-12-24T09:05:37.235Z,1011.63
2017-12-24T09:06:38.743Z,1011.54
2017-12-24T09:07:40.185Z,1011.60
2017-12-24T09:08:41.600Z,1011.61
2017-12-24T09:09:43.036Z,1011.58
2017-12-24T09:10:44.450Z,1011.57
2017-12-24T09:11:45.875Z,1011.58
2017-12-24T09:12:47.294Z,1011.62
2017-12-24T09:13:48.738Z,1011.64
2017-12-24T09:14:50.163Z,1011.65
2017-12-24T09:15:51.570Z,1011.68
2017-12-24T09:16:52.986Z,1011.67
2017-12-24T09:17:54.415Z,1011.70
2017-12-24T09:18:55.823Z,1011.67
2017-12-24T09:19:57.234Z,1011.72
2017-12-24T09:20:58.654Z,1011.70
2017-12-24T09:22:00.074Z,1011.71
2017-12-24T09:23:01.504Z,1011.78
2017-12-24T09:24:02.916Z,1011.70
2017-12-24T09:25:04.342Z,1011.74
2017-12-24T09:26:05.787Z,1011.71
2017-12-24T09:27:07.206Z,1011.78
2017-12-24T09:28:08.623Z,1011.69
2017-12-24T09:29:10.042Z,1011.73
2017-12-24T09:30:11.461Z,1011.73
2017-12-24T09:31:12.883Z,1011.67
2017-12-24T09:32:14.301Z,1011.74
2017-12-24T09:33:15.752Z,1011.76
2017-12-24T09:34:17.169Z,1011.76
2017-12-24T09:35:18.582Z,1011.76
2017-12-24T09:36:20.002Z,1011.71
2017-12-24T09:37:21.423Z,1011.69
2017-12-24T09:38:22.844Z,1011.73
2017-12-24T09:39:24.261Z,1011.77
2017-12-24T09:40:25.684Z,1011.63
2017-12-24T09:41:27.104Z,1011.68
2017-12-24T09:42:28.529Z,1011.64
2017-12-24T09:43:29.937Z,1011.72
2017-12-24T09:44:31.367Z,1011.71
2017-12-24T09:45:32.783Z,1011.77
2017-12-24T09:46:34.247Z,1011.69
2017-12-24T09:47:35.665Z,1011.75
2017-12-24T09:48:37.146Z,1011.77
2017-12-24T09:49:38.944Z,1011.70
2017-12-24T09:50:40.480Z,1011.71
2017-12-24T09:51:41.897Z,1011.83
2017-12-24T09:52:43.344Z,1011.91
2017-12-24T09:53:45.112Z,1011.91
2017-12-24T09:54:46.340Z,1011.95
2017-12-24T09:55:48.985Z,1011.95
2017-12-24T09:56:51.634Z,1011.94
2017-12-24T09:57:53.022Z,1012.03
2017-12-24T09:58:54.456Z,1012.04
2017-12-24T09:59:55.902Z,1012.06
2017-12-24T10:00:57.316Z,1012.03
2017-12-24T10:01:58.738Z,1012.09
2017-12-24T10:03:00.153Z,1011.98
2017-12-24T10:04:01.573Z,1012.02
2017-12-24T10:05:02.990Z,1011.93
2017-12-24T10:06:04.416Z,1012.08
2017-12-24T10:07:05.863Z,1012.01
2017-12-24T10:08:07.286Z,1012.04
2017-12-24T10:09:08.704Z,1011.97
2017-12-24T10:10:10.127Z,1011.94
2017-12-24T10:11:11.562Z,1011.99
2017-12-24T10:12:12.956Z,1012.04
2017-12-24T10:13:14.380Z,1012.00
2017-12-24T10:14:16.872Z,1012.04
2017-12-24T10:15:18.296Z,1012.10
2017-12-24T10:16:19.774Z,1012.04
2017-12-24T10:17:21.194Z,1012.09
2017-12-24T10:18:22.602Z,1012.07
2017-12-24T10:19:24.105Z,1012.05
2017-12-24T10:20:25.520Z,1012.12
2017-12-24T10:21:26.935Z,1012.12
2017-12-24T10:22:28.362Z,1012.10
2017-12-24T10:23:30.217Z,1012.22
2017-12-24T10:24:31.764Z,1012.11
2017-12-24T10:25:33.391Z,1012.23
2017-12-24T10:26:35.449Z,1012.16
2017-12-24T10:27:37.054Z,1012.18
2017-12-24T10:28:39.208Z,1012.15
2017-12-24T10:29:40.807Z,1012.15
2017-12-24T10:30:42.426Z,1012.16
2017-12-24T10:31:44.147Z,1012.19
2017-12-24T10:32:45.980Z,1012.17
2017-12-24T10:33:47.744Z,1012.24
2017-12-24T10:34:49.404Z,1012.20
2017-12-24T10:35:51.033Z,1012.24
2017-12-24T10:36:52.981Z,1012.20
2017-12-24T10:37:54.611Z,1012.20
2017-12-24T10:38:56.423Z,1012.17
2017-12-24T10:39:58.110Z,1012.21
2017-12-24T10:41:00.008Z,1012.16
2017-12-24T10:42:01.732Z,1012.11
2017-12-24T10:43:03.441Z,1012.10
2017-12-24T10:44:05.169Z,1012.02
2017-12-24T10:45:07.065Z,1012.02
2017-12-24T10:46:09.602Z,1012.02
2017-12-24T10:47:11.429Z,1012.01
2017-12-24T10:48:13.003Z,1011.98
2017-12-24T10:49:14.690Z,1011.99
2017-12-24T10:50:16.494Z,1011.99
2017-12-24T10:51:18.207Z,1011.96
2017-12-24T10:52:19.897Z,1011.98
2017-12-24T10:53:21.364Z,1011.92
2017-12-24T10:54:22.785Z,1011.80
2017-12-24T10:55:24.206Z,1011.63
2017-12-24T10:56:25.607Z,1011.78
2017-12-24T10:57:27.028Z,1011.78
2017-12-24T10:58:28.448Z,1011.85
2017-12-24T10:59:29.876Z,1011.80
2017-12-24T11:00:31.297Z,1011.72
2017-12-24T11:01:32.715Z,1011.76
2017-12-24T11:02:34.158Z,1011.70
2017-12-24T11:03:35.594Z,1011.74
2017-12-24T11:04:37.008Z,1011.72
2017-12-24T11:05:38.430Z,1011.74
2017-12-24T11:06:39.852Z,1011.72
2017-12-24T11:07:41.264Z,1011.65
2017-12-24T11:08:42.680Z,1011.62
2017-12-24T11:09:44.112Z,1011.74
2017-12-24T11:10:45.524Z,1011.54
2017-12-24T11:11:46.945Z,1011.57
2017-12-24T11:12:48.364Z,1011.57
2017-12-24T11:13:49.782Z,1011.60
2017-12-24T11:14:51.231Z,1011.56
2017-12-24T11:15:52.647Z,1011.63
2017-12-24T11:16:54.064Z,1011.67
2017-12-24T11:17:55.482Z,1011.51
2017-12-24T11:18:56.903Z,1011.58
2017-12-24T11:19:58.320Z,1011.55
2017-12-24T11:20:59.740Z,1011.53
2017-12-24T11:22:01.165Z,1011.52
2017-12-24T11:23:02.588Z,1011.42
2017-12-24T11:24:04.003Z,1011.44
2017-12-24T11:25:05.433Z,1011.51
2017-12-24T11:26:06.863Z,1011.50
2017-12-24T11:27:08.284Z,1011.51
2017-12-24T11:28:09.716Z,1011.46
2017-12-24T11:29:11.141Z,1011.44
2017-12-24T11:30:12.550Z,1011.51
2017-12-24T11:31:13.976Z,1011.49
2017-12-24T11:32:15.397Z,1011.46
2017-12-24T11:33:16.825Z,1011.43
2017-12-24T11:34:18.237Z,1011.43
2017-12-24T11:35:19.664Z,1011.36
2017-12-24T11:36:21.076Z,1011.40
2017-12-24T11:37:22.584Z,1011.47
2017-12-24T11:38:24.179Z,1011.42
2017-12-24T11:39:25.552Z,1011.41
2017-12-24T11:40:26.966Z,1011.40
2017-12-24T11:41:28.385Z,1011.39
2017-12-24T11:42:29.802Z,1011.31
2017-12-24T11:43:31.231Z,1011.31
2017-12-24T11:44:32.651Z,1011.38
2017-12-24T11:45:34.099Z,1011.27
2017-12-24T11:46:35.525Z,1011.21
2017-12-24T11:47:36.930Z,1011.23
2017-12-24T11:48:38.418Z,1011.21
2017-12-24T11:49:39.837Z,1011.23
2017-12-24T11:50:41.242Z,1011.22
2017-12-24T11:51:42.664Z,1011.12
2017-12-24T11:52:44.093Z,1011.16
2017-12-24T11:53:45.523Z,1011.13
2017-12-24T11:54:46.936Z,1011.08
2017-12-24T11:55:48.355Z,1011.02
2017-12-24T11:56:49.771Z,1011.10
2017-12-24T11:57:51.193Z,1011.16
2017-12-24T11:58:52.612Z,1011.03
2017-12-24T11:59:54.028Z,1011.02
2017-12-24T12:00:55.568Z,1010.99
2017-12-24T12:01:56.983Z,1011.03
2017-12-24T12:02:58.397Z,1011.02
2017-12-24T12:03:59.818Z,1010.92
2017-12-24T12:05:01.230Z,1010.97
2017-12-24T12:06:02.661Z,1010.95
2017-12-24T12:07:04.079Z,1011.07
2017-12-24T12:08:05.508Z,1010.98
2017-12-24T12:09:06.968Z,1010.99
2017-12-24T12:10:08.344Z,1011.03
2017-12-24T12:11:09.768Z,1010.96
2017-12-24T12:12:11.193Z,1010.91
2017-12-24T12:13:12.611Z,1010.90
2017-12-24T12:14:14.033Z,1011.00
2017-12-24T12:15:15.460Z,1010.97
2017-12-24T12:16:16.877Z,1010.99
2017-12-24T12:17:18.308Z,1011.09
2017-12-24T12:18:19.726Z,1010.96
2017-12-24T12:19:21.131Z,1010.99
2017-12-24T12:20:22.568Z,1011.04
2017-12-24T12:21:23.996Z,1010.98
2017-12-24T12:22:25.406Z,1010.98
2017-12-24T12:23:26.822Z,1010.94